Time;durP1;ratioP1;P1;durP2;ratioP2;P2;SDS_P1;SDS_P2;PMS_P1;PMS_P2;Temp;Humidity;BMP_temperature;BMP_pressure;BME280_temperature;BME280_humidity;BME280_pressure;Samples;Min_cycle;Max_cycle;Signal;HPM_P1;HPM_P2
2022/10/03 00:01:27;;;;;;;12.32;2.47;;;;;;;8.74;nan;102454.53;5009418;28;20490;-63
2022/10/03 00:04:08;;;;;;;7.70;2.08;;;;;;;8.71;nan;102440.50;5088385;28;20044;-58
2022/10/03 00:07:01;;;;;;;8.88;2.80;;;;;;;8.72;nan;102453.66;5073428;28;20052;-63
2022/10/03 00:09:38;;;;;;;9.50;2.10;;;;;;;8.69;nan;102455.41;5091782;28;20448;-61
2022/10/03 00:12:06;;;;;;;10.18;2.50;;;;;;;8.65;nan;102446.63;5091717;28;20368;-61
2022/10/03 00:14:35;;;;;;;9.43;2.55;;;;;;;8.64;nan;102462.41;5092026;28;20032;-61
2022/10/03 00:17:03;;;;;;;13.68;3.50;;;;;;;8.34;nan;102410.75;5091808;28;20387;-63
2022/10/03 00:20:03;;;;;;;9.25;2.63;;;;;;;8.49;nan;102435.22;5073671;28;20118;-61
2022/10/03 00:22:59;;;;;;;11.07;3.30;;;;;;;8.56;nan;102456.25;5094262;28;20083;-63
2022/10/03 00:25:27;;;;;;;12.27;3.22;;;;;;;8.56;nan;102456.25;5077273;28;20028;-62
2022/10/03 00:28:09;;;;;;;10.80;2.80;;;;;;;8.55;nan;102462.38;5095276;28;20044;-63
2022/10/03 00:30:55;;;;;;;13.00;2.85;;;;;;;8.52;nan;102449.25;5077637;28;20024;-61
2022/10/03 00:33:45;;;;;;;6.72;2.15;;;;;;;8.20;nan;102401.94;5094360;28;20036;-62
2022/10/03 00:36:41;;;;;;;6.43;2.53;;;;;;;8.51;nan;102461.50;5095057;28;20055;-63
2022/10/03 00:39:15;;;;;;;15.40;3.28;;;;;;;8.47;nan;102478.97;5094641;28;20032;-65
2022/10/03 00:41:56;;;;;;;11.68;2.60;;;;;;;8.44;nan;102484.22;5094620;28;20024;-63
2022/10/03 00:44:39;;;;;;;18.17;3.60;;;;;;;8.39;nan;102469.34;5094924;28;20111;-62
2022/10/03 00:47:19;;;;;;;11.65;2.78;;;;;;;8.42;nan;102485.97;5094890;28;20038;-61
2022/10/03 00:50:24;;;;;;;14.45;3.38;;;;;;;8.37;nan;102474.59;5094609;28;20529;-62
2022/10/03 00:52:50;;;;;;;9.85;3.08;;;;;;;8.40;nan;102487.72;5094826;28;20111;-65
2022/10/03 00:55:39;;;;;;;10.07;2.63;;;;;;;8.40;nan;102502.59;5094732;28;20554;-60
2022/10/03 00:58:32;;;;;;;8.80;2.70;;;;;;;8.37;nan;102495.59;5094882;28;20293;-61
2022/10/03 01:01:19;;;;;;;8.07;2.33;;;;;;;8.05;nan;102447.34;5094408;28;20463;-62
2022/10/03 01:03:54;;;;;;;9.15;2.30;;;;;;;8.03;nan;102440.31;5076275;28;20039;-62
2022/10/03 01:06:31;;;;;;;14.82;2.95;;;;;;;8.32;nan;102505.16;5076315;28;20131;-58
2022/10/03 01:09:02;;;;;;;8.82;2.40;;;;;;;7.99;nan;102444.72;5076704;28;20036;-61
2022/10/03 01:11:47;;;;;;;13.32;3.08;;;;;;;8.36;nan;102498.19;5094644;28;20032;-62
2022/10/03 01:14:30;;;;;;;10.27;2.38;;;;;;;8.38;nan;102507.81;5094393;28;20540;-63
2022/10/03 01:17:01;;;;;;;9.98;2.58;;;;;;;8.41;nan;102499.97;5094507;28;20046;-63
2022/10/03 01:19:42;;;;;;;15.05;3.20;;;;;;;8.18;nan;102454.38;5094210;28;20115;-64
2022/10/03 01:22:35;;;;;;;6.88;2.08;;;;;;;8.48;nan;102503.47;5076510;28;20509;-60
2022/10/03 01:25:12;;;;;;;9.05;2.10;;;;;;;8.49;nan;102507.88;5094635;28;20122;-63
2022/10/03 01:30:21;;;;;;;10.57;2.42;;;;;;;8.54;nan;102495.63;5076440;28;20042;-62
2022/10/03 01:30:23;;;;;;;10.95;3.03;;;;;;;8.57;nan;102492.13;5094598;28;20042;-61
2022/10/03 01:33:11;;;;;;;10.55;2.75;;;;;;;8.40;nan;102452.72;5093539;28;20032;-63
2022/10/03 01:35:52;;;;;;;9.52;2.47;;;;;;;8.57;nan;102485.13;5082902;28;20047;-60
2022/10/03 01:38:41;;;;;;;9.38;2.58;;;;;;;8.60;nan;102487.75;5076657;28;20040;-60
2022/10/03 01:41:33;;;;;;;9.73;2.38;;;;;;;8.56;nan;102472.88;5076091;28;20032;-60
2022/10/03 01:44:12;;;;;;;10.40;2.60;;;;;;;8.72;nan;102487.78;5076584;28;20036;-61
2022/10/03 01:46:42;;;;;;;9.60;2.92;;;;;;;8.89;nan;102511.44;5059548;28;20040;-60
2022/10/03 01:49:15;;;;;;;8.17;2.37;;;;;;;8.67;nan;102460.63;5059350;28;20051;-60
2022/10/03 01:52:09;;;;;;;11.90;2.78;;;;;;;8.87;nan;102505.31;5076255;28;20278;-62
2022/10/03 01:54:50;;;;;;;9.10;2.15;;;;;;;8.82;nan;102520.16;5076240;28;20092;-61
2022/10/03 01:57:23;;;;;;;13.32;2.58;;;;;;;8.78;nan;102505.28;5075465;28;20036;-61
2022/10/03 01:59:48;;;;;;;15.13;2.53;;;;;;;8.74;nan;102516.66;5075294;28;20039;-60
2022/10/03 02:02:36;;;;;;;9.93;2.67;;;;;;;8.70;nan;102504.41;5093134;28;20359;-61
2022/10/03 02:05:11;;;;;;;9.65;3.05;;;;;;;8.36;nan;102458.84;5093616;28;20064;-61
2022/10/03 02:07:59;;;;;;;9.65;2.15;;;;;;;8.62;nan;102516.63;5074954;28;20083;-61
2022/10/03 02:10:40;;;;;;;10.93;2.33;;;;;;;8.26;nan;102454.41;5093301;28;20036;-61
2022/10/03 02:13:13;;;;;;;;;;;;;;;8.58;nan;102522.75;5075508;28;20121;-61
2022/10/03 02:16:01;;;;;;;8.10;2.45;;;;;;;8.54;nan;102519.25;5075339;28;19908;-59
2022/10/03 02:18:48;;;;;;;7.22;1.92;;;;;;;8.47;nan;102509.59;5075236;28;20087;-60
2022/10/03 02:21:22;;;;;;;8.63;2.30;;;;;;;8.09;nan;102456.97;5093717;28;20057;-60
2022/10/03 02:23:52;;;;;;;6.05;2.05;;;;;;;8.14;nan;102484.13;5058821;28;20036;-61
2022/10/03 02:26:43;;;;;;;9.20;2.38;;;;;;;8.33;nan;102516.53;5075139;28;20386;-60
2022/10/03 02:29:21;;;;;;;12.05;2.50;;;;;;;8.29;nan;102518.28;5075073;28;20070;-61
2022/10/03 02:32:16;;;;;;;10.23;2.80;;;;;;;8.03;nan;102470.06;5093187;28;20498;-61
2022/10/03 02:35:15;;;;;;;7.30;2.58;;;;;;;8.22;nan;102502.50;5093298;28;20110;-62
2022/10/03 02:38:06;;;;;;;9.98;2.33;;;;;;;8.20;nan;102510.34;5092694;28;20468;-60
2022/10/03 02:40:58;;;;;;;;;;;;;;;8.19;nan;102507.72;5092693;28;20040;-60
2022/10/03 02:43:42;;;;;;;9.70;2.88;;;;;;;8.14;nan;102509.47;5088523;28;19922;-60
2022/10/03 02:46:21;;;;;;;11.13;4.13;;;;;;;8.12;nan;102503.31;5092460;28;20050;-60
2022/10/03 02:49:21;;;;;;;9.20;3.35;;;;;;;8.08;nan;102515.56;5092930;28;20036;-60
2022/10/03 02:52:25;;;;;;;9.82;3.35;;;;;;;8.05;nan;102502.44;5092637;28;20437;-60
2022/10/03 02:55:27;;;;;;;9.57;3.13;;;;;;;8.01;nan;102515.50;5063265;28;20502;-61
2022/10/03 02:58:38;;;;;;;8.93;3.10;;;;;;;7.96;nan;102512.88;5092763;28;20031;-61
2022/10/03 03:01:25;;;;;;;7.90;2.60;;;;;;;7.97;nan;102519.84;5092508;28;20491;-62
2022/10/03 03:04:08;;;;;;;9.10;2.63;;;;;;;7.94;nan;102514.59;5057818;28;20119;-61
2022/10/03 03:06:36;;;;;;;6.03;2.35;;;;;;;7.92;nan;102525.09;5092507;28;20080;-62
2022/10/03 03:09:31;;;;;;;8.90;2.75;;;;;;;7.91;nan;102517.19;5092840;28;20039;-60
2022/10/03 03:12:24;;;;;;;11.35;3.45;;;;;;;7.89;nan;102521.56;5074594;28;20062;-60
2022/10/03 03:15:27;;;;;;;7.70;3.20;;;;;;;7.86;nan;102517.19;5092761;28;20102;-61
2022/10/03 03:17:55;;;;;;;12.70;2.45;;;;;;;7.85;nan;102532.94;5092538;28;20058;-59
2022/10/03 03:20:45;;;;;;;8.68;2.58;;;;;;;7.82;nan;102523.25;5092274;28;20032;-61
2022/10/03 03:23:40;;;;;;;9.32;2.60;;;;;;;7.77;nan;102514.50;5091682;28;20027;-60
2022/10/03 03:26:21;;;;;;;9.00;2.67;;;;;;;7.76;nan;102512.75;5084087;28;20125;-61
2022/10/03 03:29:09;;;;;;;11.27;2.67;;;;;;;7.54;nan;102489.03;5092209;28;20089;-61
2022/10/03 03:31:53;;;;;;;8.60;2.13;;;;;;;7.76;nan;102514.53;5092311;28;20037;-60
2022/10/03 03:34:34;;;;;;;7.75;2.40;;;;;;;7.77;nan;102522.38;5092521;28;20028;-62
2022/10/03 03:37:10;;;;;;;6.15;2.42;;;;;;;7.44;nan;102450.56;5092296;28;20032;-61
2022/10/03 03:39:43;;;;;;;10.35;3.13;;;;;;;7.64;nan;102472.50;5074268;28;20429;-60
2022/10/03 03:42:23;;;;;;;8.00;2.65;;;;;;;7.97;nan;102519.84;5091802;28;20307;-60
2022/10/03 03:45:01;;;;;;;8.35;2.30;;;;;;;8.13;nan;102524.31;5073903;28;20032;-61
2022/10/03 03:47:45;;;;;;;12.63;3.33;;;;;;;8.27;nan;102527.91;5073937;28;20471;-61
2022/10/03 03:50:33;;;;;;;16.33;3.35;;;;;;;8.41;nan;102526.19;5073804;28;20032;-60
2022/10/03 03:53:43;;;;;;;8.85;2.85;;;;;;;8.55;nan;102523.63;5091757;28;20115;-60
2022/10/03 03:56:13;;;;;;;11.25;2.90;;;;;;;8.62;nan;102522.75;5060220;28;20044;-60
2022/10/03 03:58:54;;;;;;;8.75;2.97;;;;;;;8.74;nan;102528.03;5095498;28;20020;-62
2022/10/03 04:01:34;;;;;;;10.00;2.80;;;;;;;8.80;nan;102538.56;5077789;28;20044;-60
2022/10/03 04:04:31;;;;;;;5.97;2.33;;;;;;;8.55;nan;102472.88;5095744;28;20039;-59
2022/10/03 04:07:25;;;;;;;14.45;3.00;;;;;;;8.93;nan;102531.59;5077589;28;20048;-60
2022/10/03 04:10:05;;;;;;;11.50;2.85;;;;;;;8.68;nan;102477.25;5077812;28;20498;-60
2022/10/03 04:13:01;;;;;;;12.77;2.95;;;;;;;8.70;nan;102470.28;5077284;28;20421;-61
2022/10/03 04:15:38;;;;;;;9.85;2.95;;;;;;;9.04;nan;102524.59;5095296;28;20062;-60
2022/10/03 04:21:31;;;;;;;9.85;2.75;;;;;;;8.76;nan;102459.75;5080617;28;20061;-61
2022/10/03 04:24:21;;;;;;;10.85;2.40;;;;;;;9.26;nan;102530.69;5095698;28;20116;-61
2022/10/03 04:27:05;;;;;;;9.95;2.58;;;;;;;9.32;nan;102531.59;5095609;28;20509;-61
2022/10/03 04:29:42;;;;;;;11.75;3.00;;;;;;;9.02;nan;102487.78;5095610;28;20166;-61
2022/10/03 04:32:35;;;;;;;14.23;3.97;;;;;;;9.37;nan;102537.69;5095369;28;20042;-60
2022/10/03 04:35:31;;;;;;;11.80;2.95;;;;;;;9.39;nan;102537.72;5095436;28;20032;-60
2022/10/03 04:38:12;;;;;;;10.70;3.20;;;;;;;9.36;nan;102542.97;5077080;28;20032;-61
2022/10/03 04:40:58;;;;;;;7.22;2.53;;;;;;;9.28;nan;102550.84;5078538;28;20052;-63
2022/10/03 04:43:51;;;;;;;7.05;2.50;;;;;;;8.87;nan;102498.28;5077549;28;20121;-61
2022/10/03 04:46:42;;;;;;;6.72;2.80;;;;;;;9.10;nan;102542.97;5077405;28;20082;-61
2022/10/03 04:49:46;;;;;;;8.20;3.17;;;;;;;9.09;nan;102556.97;5077252;28;20035;-60
2022/10/03 04:52:25;;;;;;;11.02;3.03;;;;;;;9.14;nan;102538.56;5076978;28;20032;-60
2022/10/03 04:54:59;;;;;;;5.57;2.67;;;;;;;9.21;nan;102540.34;5095046;28;20059;-60
2022/10/03 04:57:24;;;;;;;7.63;3.00;;;;;;;9.28;nan;102547.38;5094404;28;20028;-60
2022/10/03 05:00:07;;;;;;;11.27;2.67;;;;;;;9.35;nan;102538.59;5095150;28;20036;-62
2022/10/03 05:02:53;;;;;;;8.75;2.97;;;;;;;9.44;nan;102543.84;5095120;28;20028;-61
2022/10/03 05:05:30;;;;;;;8.85;2.63;;;;;;;9.48;nan;102546.47;5095047;28;20074;-61
2022/10/03 05:07:59;;;;;;;5.95;2.47;;;;;;;9.54;nan;102550.84;5075212;28;20511;-61
2022/10/03 05:11:04;;;;;;;6.10;2.17;;;;;;;9.59;nan;102554.34;5094792;28;20040;-61
2022/10/03 05:13:33;;;;;;;11.05;2.80;;;;;;;9.66;nan;102542.06;5094538;28;20434;-60
2022/10/03 05:16:07;;;;;;;10.75;3.50;;;;;;;9.70;nan;102549.06;5094763;28;20111;-61
2022/10/03 05:19:03;;;;;;;8.93;2.40;;;;;;;9.75;nan;102557.84;5094311;28;20032;-60
2022/10/03 05:21:44;;;;;;;6.93;2.65;;;;;;;9.80;nan;102550.81;5076235;28;20064;-60
2022/10/03 05:24:21;;;;;;;9.32;2.90;;;;;;;9.69;nan;102516.63;5076170;28;20032;-60
2022/10/03 05:26:53;;;;;;;11.07;3.40;;;;;;;9.87;nan;102547.25;5076014;28;20032;-60
2022/10/03 05:29:26;;;;;;;11.10;3.10;;;;;;;9.85;nan;102542.03;5094302;28;20032;-61
2022/10/03 05:32:07;;;;;;;12.68;2.95;;;;;;;9.97;nan;102557.78;5094257;28;20028;-61
2022/10/03 05:34:35;;;;;;;;;;;;;;;10.02;nan;102553.38;5094895;28;20060;-60
2022/10/03 05:37:24;;;;;;;6.68;2.60;;;;;;;10.08;nan;102550.72;5094221;28;19919;-60
2022/10/03 05:40:20;;;;;;;8.90;3.20;;;;;;;10.12;nan;102551.59;5076043;28;20024;-59
2022/10/03 05:42:48;;;;;;;11.38;3.38;;;;;;;10.12;nan;102557.75;5075785;28;20040;-60
2022/10/03 05:45:20;;;;;;;8.52;2.75;;;;;;;10.13;nan;102546.34;5094012;28;20035;-61
2022/10/03 05:48:07;;;;;;;6.43;2.97;;;;;;;9.83;nan;102492.94;5075669;28;20032;-60
2022/10/03 05:50:57;;;;;;;7.28;2.42;;;;;;;10.16;nan;102562.13;5093881;28;20562;-61
2022/10/03 05:53:36;;;;;;;7.53;2.63;;;;;;;10.19;nan;102557.75;5093736;28;20028;-61
2022/10/03 05:56:31;;;;;;;9.85;2.70;;;;;;;10.21;nan;102554.25;5075896;28;20020;-62
2022/10/03 05:59:24;;;;;;;15.45;7.38;;;;;;;10.20;nan;102548.97;5075416;28;20059;-61
2022/10/03 06:02:07;;;;;;;13.82;4.85;;;;;;;9.94;nan;102514.81;5093721;28;20368;-61
2022/10/03 06:04:45;;;;;;;8.77;3.80;;;;;;;9.74;nan;102504.38;5075852;28;20039;-62
2022/10/03 06:07:25;;;;;;;9.90;4.60;;;;;;;10.06;nan;102562.13;5092896;28;20064;-61
2022/10/03 06:10:24;;;;;;;10.20;4.45;;;;;;;9.99;nan;102558.66;5093364;28;20106;-61
2022/10/03 06:13:05;;;;;;;12.20;3.72;;;;;;;9.93;nan;102557.78;5080975;28;20194;-62
2022/10/03 06:16:05;;;;;;;10.52;3.83;;;;;;;9.84;nan;102549.91;5075191;28;20032;-61
2022/10/03 06:18:52;;;;;;;9.68;3.80;;;;;;;9.84;nan;102556.03;5051431;28;20193;-64
2022/10/03 06:21:32;;;;;;;11.85;3.92;;;;;;;9.85;nan;102562.19;5093430;28;20313;-60
2022/10/03 06:24:16;;;;;;;9.73;3.63;;;;;;;9.89;nan;102559.56;5075213;28;20089;-62
2022/10/03 06:26:59;;;;;;;12.68;4.00;;;;;;;9.99;nan;102561.28;5093141;28;20479;-64
2022/10/03 06:29:50;;;;;;;12.07;4.22;;;;;;;10.12;nan;102568.28;5093096;28;20399;-64
2022/10/03 06:32:53;;;;;;;15.82;4.53;;;;;;;10.23;nan;102563.00;5092881;28;20032;-65
2022/10/03 06:35:46;;;;;;;14.13;4.32;;;;;;;10.34;nan;102569.09;5093157;28;20059;-60
2022/10/03 06:38:20;;;;;;;6.50;3.63;;;;;;;10.45;nan;102575.16;5093070;28;20089;-60
2022/10/03 06:41:18;;;;;;;11.07;4.18;;;;;;;10.56;nan;102565.50;5056681;28;20028;-61
2022/10/03 06:43:55;;;;;;;10.35;4.75;;;;;;;10.58;nan;102542.66;5085645;28;20403;-61
2022/10/03 06:46:39;;;;;;;15.35;4.78;;;;;;;10.82;nan;102575.00;5091329;28;20387;-63
2022/10/03 06:49:33;;;;;;;13.85;4.13;;;;;;;10.93;nan;102576.69;5073267;28;20532;-63
2022/10/03 06:52:57;;;;;;;15.55;4.57;;;;;;;11.02;nan;102584.53;5073068;28;20043;-60
2022/10/03 06:55:37;;;;;;;10.95;4.40;;;;;;;11.10;nan;102579.19;5008546;28;20535;-59
2022/10/03 06:58:24;;;;;;;15.25;5.18;;;;;;;11.17;nan;102573.88;5008955;28;20044;-59
2022/10/03 07:01:10;;;;;;;17.27;4.88;;;;;;;11.27;nan;102587.84;5076141;28;20042;-59
2022/10/03 07:04:06;;;;;;;13.10;4.10;;;;;;;11.34;nan;102575.50;5089976;28;20652;-59
2022/10/03 07:06:44;;;;;;;11.02;3.88;;;;;;;11.43;nan;102588.63;5090660;28;20055;-58
2022/10/03 07:09:35;;;;;;;9.63;3.78;;;;;;;11.51;nan;102595.56;5091004;28;20066;-57
2022/10/03 07:12:19;;;;;;;11.75;3.83;;;;;;;11.25;nan;102537.78;5090962;28;20066;-61
2022/10/03 07:15:22;;;;;;;13.75;4.18;;;;;;;11.58;nan;102581.47;5091474;28;20075;-60
2022/10/03 07:18:05;;;;;;;11.88;4.43;;;;;;;11.65;nan;102601.59;5066517;28;20502;-59
2022/10/03 07:21:04;;;;;;;13.57;3.85;;;;;;;11.75;nan;102602.44;5073184;28;20027;-59
2022/10/03 07:24:08;;;;;;;11.55;4.25;;;;;;;11.80;nan;102597.97;5072670;28;20035;-62
2022/10/03 07:26:49;;;;;;;10.55;3.72;;;;;;;11.91;nan;102596.09;5090903;28;20020;-60
2022/10/03 07:29:20;;;;;;;19.83;3.92;;;;;;;11.96;nan;102593.44;5090632;28;20475;-60
2022/10/03 07:32:04;;;;;;;13.77;3.47;;;;;;;12.05;nan;102598.63;5072506;28;20106;-57
2022/10/03 07:34:45;;;;;;;12.50;3.55;;;;;;;12.11;nan;102598.56;5090911;28;20040;-59
2022/10/03 07:40:43;;;;;;;8.73;3.38;;;;;;;12.24;nan;102593.13;5090926;28;20051;-60
2022/10/03 07:43:27;;;;;;;9.55;3.25;;;;;;;12.30;nan;102594.81;5035406;28;20043;-60
2022/10/03 07:46:27;;;;;;;11.23;3.88;;;;;;;12.39;nan;102590.31;5072929;28;20851;-56
2022/10/03 07:49:04;;;;;;;15.95;3.13;;;;;;;12.50;nan;102584.88;5090970;28;20028;-59
2022/10/03 07:51:32;;;;;;;9.15;3.05;;;;;;;12.65;nan;102592.59;5090929;28;20039;-59
2022/10/03 07:54:16;;;;;;;16.10;4.25;;;;;;;12.57;nan;102554.88;5090565;28;20036;-60
2022/10/03 07:57:09;;;;;;;17.73;4.32;;;;;;;12.94;nan;102605.41;5091143;28;20081;-59
2022/10/03 08:00:12;;;;;;;14.10;3.80;;;;;;;13.12;nan;102613.13;5091125;28;20085;-59
2022/10/03 08:03:13;;;;;;;10.82;3.60;;;;;;;13.28;nan;102613.78;5068336;28;20079;-59
2022/10/03 08:05:58;;;;;;;10.65;3.47;;;;;;;13.39;nan;102625.06;5090586;28;20467;-60
2022/10/03 08:08:49;;;;;;;7.45;3.50;;;;;;;13.49;nan;102624.88;5072612;28;20055;-60
2022/10/03 08:11:31;;;;;;;8.07;3.40;;;;;;;13.56;nan;102627.44;5090917;28;20024;-60
2022/10/03 08:14:15;;;;;;;10.07;3.58;;;;;;;13.69;nan;102628.97;5090850;28;20043;-62
2022/10/03 08:16:53;;;;;;;8.50;3.67;;;;;;;13.83;nan;102635.78;5090741;28;20391;-58
2022/10/03 08:19:46;;;;;;;9.52;3.35;;;;;;;13.94;nan;102635.59;5090785;28;20034;-59
2022/10/03 08:22:30;;;;;;;11.23;3.50;;;;;;;14.03;nan;102635.44;5090765;28;20561;-62
2022/10/03 08:24:55;;;;;;;10.52;3.15;;;;;;;13.73;nan;102588.31;5090485;28;20066;-61
2022/10/03 08:27:56;;;;;;;13.60;3.80;;;;;;;14.12;nan;102648.50;5090542;28;20032;-63
2022/10/03 08:30:30;;;;;;;11.17;3.93;;;;;;;14.43;nan;102647.03;5047174;28;20048;-61
2022/10/03 08:33:05;;;;;;;13.50;4.05;;;;;;;14.89;nan;102657.56;5072676;28;20032;-61
2022/10/03 08:36:07;;;;;;;7.22;3.05;;;;;;;15.54;nan;102653.44;5090461;28;20027;-61
2022/10/03 08:39:08;;;;;;;6.80;3.05;;;;;;;16.79;nan;102658.94;5090395;28;20463;-65
2022/10/03 08:41:59;;;;;;;10.60;3.38;;;;;;;17.81;nan;102646.81;5090744;28;20032;-61
2022/10/03 08:44:43;;;;;;;12.80;3.90;;;;;;;19.08;nan;102692.00;5075883;28;20555;-61
2022/10/03 08:47:12;;;;;;;9.70;3.38;;;;;;;19.64;nan;102671.94;5075895;28;20051;-61
2022/10/03 08:50:14;;;;;;;9.75;3.20;;;;;;;19.63;nan;102698.72;5094132;28;20486;-60
2022/10/03 08:52:57;;;;;;;7.80;3.40;;;;;;;18.76;nan;102665.69;5094041;28;20028;-61
2022/10/03 08:55:44;;;;;;;8.38;2.70;;;;;;;18.77;nan;102700.28;5076282;28;20032;-61
2022/10/03 08:58:37;;;;;;;9.35;2.97;;;;;;;19.06;nan;102692.03;5075782;28;20032;-61
2022/10/03 09:01:23;;;;;;;7.53;3.08;;;;;;;19.49;nan;102688.63;5093885;28;20089;-61
2022/10/03 09:04:16;;;;;;;8.68;3.20;;;;;;;19.67;nan;102691.47;5093199;28;20478;-61
2022/10/03 09:06:47;;;;;;;7.40;3.13;;;;;;;19.81;nan;102700.66;5093713;28;20075;-61
2022/10/03 09:09:15;;;;;;;;;;;;;;;19.94;nan;102699.19;5094190;28;20510;-63
2022/10/03 09:11:59;;;;;;;7.30;2.80;;;;;;;20.48;nan;102703.13;5093712;28;20367;-60
2022/10/03 09:14:33;;;;;;;5.35;2.30;;;;;;;20.27;nan;102704.94;5093701;28;20165;-61
2022/10/03 09:17:05;;;;;;;9.15;3.00;;;;;;;20.17;nan;102690.19;5075412;28;20491;-62
2022/10/03 09:19:51;;;;;;;8.43;2.92;;;;;;;19.49;nan;102663.69;5093467;28;20035;-61
2022/10/03 09:22:21;;;;;;;8.50;2.88;;;;;;;19.49;nan;102693.97;5093553;28;20077;-64
2022/10/03 09:24:56;;;;;;;8.50;2.58;;;;;;;19.10;nan;102695.47;5075501;28;20035;-62
2022/10/03 09:27:45;;;;;;;10.68;2.90;;;;;;;18.55;nan;102643.34;5075059;28;20067;-59
2022/10/03 09:30:19;;;;;;;10.45;2.95;;;;;;;18.62;nan;102689.31;5075091;28;20399;-60
2022/10/03 09:33:06;;;;;;;10.05;2.65;;;;;;;18.44;nan;102682.81;5075165;28;20077;-60
2022/10/03 09:35:48;;;;;;;6.97;2.60;;;;;;;17.94;nan;102634.84;5093140;28;20089;-61
2022/10/03 09:38:29;;;;;;;10.45;3.38;;;;;;;17.98;nan;102680.88;5093162;28;20047;-62
2022/10/03 09:41:12;;;;;;;8.60;2.92;;;;;;;17.72;nan;102697.75;5093200;28;20059;-61
2022/10/03 09:44:05;;;;;;;4.53;2.28;;;;;;;17.49;nan;102670.06;5093021;28;20032;-60
2022/10/03 09:47:21;;;;;;;9.38;2.67;;;;;;;17.22;nan;102675.34;5093017;28;20474;-62
2022/10/03 09:50:09;;;;;;;7.72;3.28;;;;;;;16.73;nan;102619.22;5077812;28;20063;-63
2022/10/03 09:53:02;;;;;;;8.63;2.67;;;;;;;16.86;nan;102666.72;5092390;28;20371;-62
2022/10/03 09:55:50;;;;;;;8.98;2.97;;;;;;;16.68;nan;102669.03;5092880;28;20036;-62
2022/10/03 09:58:43;;;;;;;10.10;2.88;;;;;;;16.53;nan;102650.81;5092260;28;20032;-60
2022/10/03 10:01:18;;;;;;;7.43;3.30;;;;;;;16.43;nan;102657.31;5073801;28;20059;-60
2022/10/03 10:04:33;;;;;;;10.15;3.08;;;;;;;16.23;nan;102652.53;5074506;28;20039;-61
2022/10/03 10:07:35;;;;;;;10.00;3.42;;;;;;;16.10;nan;102651.13;5066773;28;20052;-61
2022/10/03 10:10:17;;;;;;;11.20;3.00;;;;;;;16.03;nan;102654.84;5074338;28;20024;-64
2022/10/03 10:13:10;;;;;;;11.80;3.40;;;;;;;16.03;nan;102639.78;5074207;28;20540;-63
2022/10/03 10:15:49;;;;;;;10.80;3.33;;;;;;;16.04;nan;102633.56;5092634;28;20036;-62
2022/10/03 10:18:37;;;;;;;7.70;2.70;;;;;;;16.18;nan;102642.03;5092170;28;20028;-65
2022/10/03 10:21:12;;;;;;;11.20;3.50;;;;;;;16.31;nan;102646.09;5074546;28;20039;-61
2022/10/03 10:23:50;;;;;;;11.30;3.20;;;;;;;16.15;nan;102594.31;5092276;28;20056;-61
2022/10/03 10:26:53;;;;;;;13.23;3.30;;;;;;;16.49;nan;102643.84;5073986;28;20107;-60
2022/10/03 10:29:48;;;;;;;12.55;3.05;;;;;;;16.53;nan;102632.22;5092227;28;20036;-59
2022/10/03 10:32:38;;;;;;;9.98;3.45;;;;;;;16.62;nan;102645.28;5092336;28;20234;-63
2022/10/03 10:35:41;;;;;;;9.35;3.13;;;;;;;16.61;nan;102644.38;5091961;28;20039;-62
2022/10/03 10:38:10;;;;;;;10.27;2.85;;;;;;;16.67;nan;102649.53;5091990;28;20181;-62
2022/10/03 10:40:48;;;;;;;11.80;3.15;;;;;;;16.64;nan;102644.31;5091973;28;20453;-62
2022/10/03 10:43:35;;;;;;;11.00;3.10;;;;;;;16.29;nan;102586.81;5074105;28;20101;-59
2022/10/03 10:46:14;;;;;;;7.32;2.70;;;;;;;16.48;nan;102632.34;5073928;28;20028;-63
2022/10/03 10:49:16;;;;;;;7.75;2.92;;;;;;;16.47;nan;102638.56;5091502;28;20109;-60
2022/10/03 10:51:47;;;;;;;9.75;2.75;;;;;;;16.37;nan;102641.53;5091771;28;20085;-61
2022/10/03 10:54:15;;;;;;;9.45;3.03;;;;;;;16.32;nan;102633.69;5091678;28;20103;-61
2022/10/03 10:57:02;;;;;;;9.82;3.55;;;;;;;16.22;nan;102640.19;5091652;28;20487;-62
2022/10/03 10:59:52;;;;;;;10.38;2.50;;;;;;;16.23;nan;102637.47;5073732;28;20036;-62
2022/10/03 11:02:26;;;;;;;11.60;2.92;;;;;;;16.20;nan;102639.31;5091591;28;20394;-61
2022/10/03 11:05:12;;;;;;;10.05;3.53;;;;;;;16.21;nan;102625.13;5072835;28;20040;-63
2022/10/03 11:07:56;;;;;;;11.40;3.22;;;;;;;16.23;nan;102633.94;5090854;28;20392;-61
2022/10/03 11:10:43;;;;;;;11.40;3.17;;;;;;;16.26;nan;102639.16;5091638;28;20447;-61
2022/10/03 11:13:30;;;;;;;9.95;3.10;;;;;;;16.08;nan;102607.81;5091246;28;20032;-62
2022/10/03 11:16:34;;;;;;;8.75;2.80;;;;;;;16.29;nan;102642.59;5091327;28;20118;-61
2022/10/03 11:19:33;;;;;;;12.00;3.38;;;;;;;16.25;nan;102645.41;5091318;28;20024;-60
2022/10/03 11:22:31;;;;;;;10.00;2.53;;;;;;;16.25;nan;102640.97;5091305;28;20066;-61
2022/10/03 11:25:25;;;;;;;9.02;2.53;;;;;;;16.26;nan;102642.69;5091122;28;20485;-62
2022/10/03 11:27:56;;;;;;;10.98;2.90;;;;;;;16.30;nan;102657.66;5073179;28;20441;-60
2022/10/03 11:30:46;;;;;;;6.60;2.08;;;;;;;16.25;nan;102650.72;5072834;28;20036;-61
2022/10/03 11:33:20;;;;;;;5.68;1.73;;;;;;;16.28;nan;102669.25;5091214;28;20069;-62
2022/10/03 11:35:58;;;;;;;9.30;1.88;;;;;;;16.19;nan;102662.41;5091283;28;20085;-61
2022/10/03 11:38:28;;;;;;;7.05;2.08;;;;;;;15.84;nan;102609.34;5091079;28;20115;-62
2022/10/03 11:40:59;;;;;;;8.40;2.30;;;;;;;16.03;nan;102655.72;5072850;28;20403;-59
2022/10/03 11:43:56;;;;;;;6.72;2.17;;;;;;;15.98;nan;102656.75;5091282;28;20046;-59
2022/10/03 11:46:31;;;;;;;6.88;1.65;;;;;;;15.84;nan;102657.13;5072723;28;20475;-64
2022/10/03 11:49:15;;;;;;;7.88;2.03;;;;;;;15.82;nan;102653.63;5090853;28;20032;-63
2022/10/03 11:52:28;;;;;;;8.38;2.30;;;;;;;15.78;nan;102651.97;5091066;28;20032;-61
2022/10/03 11:55:36;;;;;;;8.40;2.25;;;;;;;15.81;nan;102662.50;5083611;28;20047;-61
2022/10/03 11:58:11;;;;;;;4.88;1.55;;;;;;;15.80;nan;102659.88;5061270;28;20051;-61
2022/10/03 12:00:38;;;;;;;7.07;1.67;;;;;;;15.52;nan;102606.63;5072685;28;20475;-63
2022/10/03 12:03:13;;;;;;;6.80;1.90;;;;;;;15.83;nan;102644.75;5072751;28;20527;-62
2022/10/03 12:08:58;;;;;;;11.07;2.17;;;;;;;15.70;nan;102593.72;5075035;28;20051;-61
2022/10/03 12:11:27;;;;;;;7.35;2.13;;;;;;;15.38;nan;102537.91;5072692;28;20038;-60
2022/10/03 12:14:07;;;;;;;8.85;2.65;;;;;;;15.96;nan;102646.19;5072579;28;20037;-61
2022/10/03 12:17:00;;;;;;;10.40;2.38;;;;;;;15.91;nan;102634.78;5092206;28;20032;-60
2022/10/03 12:19:49;;;;;;;8.43;2.67;;;;;;;15.64;nan;102593.03;5077085;28;20036;-60
2022/10/03 12:22:36;;;;;;;5.88;2.28;;;;;;;15.90;nan;102626.88;5076122;28;20043;-61
2022/10/03 12:25:18;;;;;;;7.75;3.00;;;;;;;15.80;nan;102610.31;5075999;28;20032;-62
2022/10/03 12:27:48;;;;;;;;;;;;;;;15.97;nan;102621.34;5060197;28;20032;-61
2022/10/03 12:30:15;;;;;;;10.13;3.03;;;;;;;15.79;nan;102567.88;5094511;28;19966;-62
2022/10/03 12:33:06;;;;;;;8.52;2.28;;;;;;;16.20;nan;102612.75;5059525;28;20028;-59
2022/10/03 12:35:34;;;;;;;;;;;;;;;16.30;nan;102623.09;5095097;28;20394;-61
2022/10/03 12:38:17;;;;;;;12.38;3.50;;;;;;;16.04;nan;102563.63;5094089;28;19926;-61
2022/10/03 12:40:48;;;;;;;9.85;3.63;;;;;;;16.43;nan;102620.09;5094195;28;20386;-60
2022/10/03 12:43:53;;;;;;;7.30;2.85;;;;;;;16.46;nan;102623.53;5076309;28;20036;-51
2022/10/03 12:46:57;;;;;;;7.88;2.58;;;;;;;16.47;nan;102624.41;5093220;28;20044;-55
2022/10/03 12:49:35;;;;;;;7.82;2.95;;;;;;;16.07;nan;102564.44;5080295;28;20039;-56
2022/10/03 12:52:09;;;;;;;9.63;2.95;;;;;;;16.37;nan;102605.22;5093913;28;20028;-56
2022/10/03 12:54:44;;;;;;;10.68;2.70;;;;;;;16.34;nan;102608.78;5076048;28;20036;-54
2022/10/03 12:57:31;;;;;;;10.38;2.85;;;;;;;16.36;nan;102605.25;5094042;28;20032;-55
2022/10/03 13:00:06;;;;;;;14.07;3.47;;;;;;;16.03;nan;102561.88;5093859;28;20036;-58
2022/10/03 13:02:39;;;;;;;10.07;3.08;;;;;;;16.29;nan;102610.72;5075885;28;20032;-55
2022/10/03 13:05:21;;;;;;;10.77;2.85;;;;;;;16.21;nan;102618.03;5075695;28;20667;-53
2022/10/03 13:08:01;;;;;;;10.00;3.08;;;;;;;16.12;nan;102601.47;5092731;28;20063;-53
2022/10/03 13:10:46;;;;;;;8.77;2.92;;;;;;;16.08;nan;102607.81;5075402;28;20383;-56
2022/10/03 13:13:18;;;;;;;6.70;2.97;;;;;;;16.02;nan;102606.19;5075526;28;20024;-59
2022/10/03 13:15:53;;;;;;;16.20;3.40;;;;;;;15.92;nan;102595.84;5093452;28;20137;-57